sensor_id;sensor_type;location;lat;lon;timestamp;P1;P2;P0
55549;PMS7003;41397;49.972;18.944;2023-03-14T00:00:58;3;3;2
55549;PMS7003;41397;49.972;18.944;2023-03-14T00:04:00;3;3;3
55549;PMS7003;41397;49.972;18.944;2023-03-14T00:07:03;2;2;2
55549;PMS7003;41397;49.972;18.944;2023-03-14T00:10:05;2;2;1
55549;PMS7003;41397;49.972;18.944;2023-03-14T00:13:09;4;4;4
55549;PMS7003;41397;49.972;18.944;2023-03-14T00:16:12;2;2;2
55549;PMS7003;41397;49.972;18.944;2023-03-14T00:19:14;3;3;3
55549;PMS7003;41397;49.972;18.944;2023-03-14T00:22:15;5;5;4
55549;PMS7003;41397;49.972;18.944;2023-03-14T00:25:17;3;3;3
55549;PMS7003;41397;49.972;18.944;2023-03-14T00:28:18;3;3;3
55549;PMS7003;41397;49.972;18.944;2023-03-14T00:31:20;4;4;3
55549;PMS7003;41397;49.972;18.944;2023-03-14T00:34:21;2;2;1
55549;PMS7003;41397;49.972;18.944;2023-03-14T00:37:23;4;4;3
55549;PMS7003;41397;49.972;18.944;2023-03-14T00:40:24;6;6;2
55549;PMS7003;41397;49.972;18.944;2023-03-14T00:43:26;5;5;5
55549;PMS7003;41397;49.972;18.944;2023-03-14T00:46:27;2;2;2
55549;PMS7003;41397;49.972;18.944;2023-03-14T00:49:29;1;1;1
55549;PMS7003;41397;49.972;18.944;2023-03-14T00:52:30;3;3;1
55549;PMS7003;41397;49.972;18.944;2023-03-14T00:55:35;3;3;2
55549;PMS7003;41397;49.972;18.944;2023-03-14T00:58:38;3;3;3
55549;PMS7003;41397;49.972;18.944;2023-03-14T01:01:39;4;4;3
55549;PMS7003;41397;49.972;18.944;2023-03-14T01:04:42;1;1;1
55549;PMS7003;41397;49.972;18.944;2023-03-14T01:07:43;2;2;2
55549;PMS7003;41397;49.972;18.944;2023-03-14T01:10:45;3;3;1
55549;PMS7003;41397;49.972;18.944;2023-03-14T01:13:46;1;1;1
55549;PMS7003;41397;49.972;18.944;2023-03-14T01:16:48;2;2;2
55549;PMS7003;41397;49.972;18.944;2023-03-14T01:19:49;2;2;2
55549;PMS7003;41397;49.972;18.944;2023-03-14T01:22:50;2;2;2
55549;PMS7003;41397;49.972;18.944;2023-03-14T01:25:52;3;3;3
55549;PMS7003;41397;49.972;18.944;2023-03-14T01:28:57;1;1;1
55549;PMS7003;41397;49.972;18.944;2023-03-14T01:31:59;1;1;1
55549;PMS7003;41397;49.972;18.944;2023-03-14T01:35:00;5;4;2
55549;PMS7003;41397;49.972;18.944;2023-03-14T01:38:01;1;1;1
55549;PMS7003;41397;49.972;18.944;2023-03-14T01:41:03;3;3;2
55549;PMS7003;41397;49.972;18.944;2023-03-14T01:44:05;6;6;4
55549;PMS7003;41397;49.972;18.944;2023-03-14T01:47:10;3;3;3
55549;PMS7003;41397;49.972;18.944;2023-03-14T01:50:11;4;4;3
55549;PMS7003;41397;49.972;18.944;2023-03-14T01:53:13;6;6;5
55549;PMS7003;41397;49.972;18.944;2023-03-14T01:56:15;6;6;5
55549;PMS7003;41397;49.972;18.944;2023-03-14T01:59:18;4;4;3
55549;PMS7003;41397;49.972;18.944;2023-03-14T02:02:20;3;3;2
55549;PMS7003;41397;49.972;18.944;2023-03-14T02:05:25;4;4;3
55549;PMS7003;41397;49.972;18.944;2023-03-14T02:08:32;5;5;4
55549;PMS7003;41397;49.972;18.944;2023-03-14T02:11:36;3;3;3
55549;PMS7003;41397;49.972;18.944;2023-03-14T02:14:39;3;3;3
55549;PMS7003;41397;49.972;18.944;2023-03-14T02:17:47;6;6;6
55549;PMS7003;41397;49.972;18.944;2023-03-14T02:24:08;9;9;6
55549;PMS7003;41397;49.972;18.944;2023-03-14T02:27:19;5;5;5
55549;PMS7003;41397;49.972;18.944;2023-03-14T02:30:22;10;10;8
55549;PMS7003;41397;49.972;18.944;2023-03-14T02:33:28;8;8;5
55549;PMS7003;41397;49.972;18.944;2023-03-14T02:36:29;3;3;3
55549;PMS7003;41397;49.972;18.944;2023-03-14T02:39:41;4;4;4
55549;PMS7003;41397;49.972;18.944;2023-03-14T02:42:40;8;8;6
55549;PMS7003;41397;49.972;18.944;2023-03-14T02:45:48;7;7;4
55549;PMS7003;41397;49.972;18.944;2023-03-14T02:48:55;8;8;6
55549;PMS7003;41397;49.972;18.944;2023-03-14T02:52:02;16;16;12
55549;PMS7003;41397;49.972;18.944;2023-03-14T02:55:04;14;12;10
55549;PMS7003;41397;49.972;18.944;2023-03-14T02:58:07;20;20;12
55549;PMS7003;41397;49.972;18.944;2023-03-14T03:01:09;9;9;6
55549;PMS7003;41397;49.972;18.944;2023-03-14T03:04:10;9;9;5
55549;PMS7003;41397;49.972;18.944;2023-03-14T03:07:12;1;1;1
55549;PMS7003;41397;49.972;18.944;2023-03-14T03:10:13;6;6;6
55549;PMS7003;41397;49.972;18.944;2023-03-14T03:13:15;2;2;1
55549;PMS7003;41397;49.972;18.944;2023-03-14T03:16:17;2;2;1
55549;PMS7003;41397;49.972;18.944;2023-03-14T03:19:18;2;2;2
55549;PMS7003;41397;49.972;18.944;2023-03-14T03:22:20;2;2;1
55549;PMS7003;41397;49.972;18.944;2023-03-14T03:25:21;3;3;3
55549;PMS7003;41397;49.972;18.944;2023-03-14T03:28:23;1;1;0
55549;PMS7003;41397;49.972;18.944;2023-03-14T03:31:24;3;3;3
55549;PMS7003;41397;49.972;18.944;2023-03-14T03:34:27;2;2;2
55549;PMS7003;41397;49.972;18.944;2023-03-14T03:37:29;3;3;2
55549;PMS7003;41397;49.972;18.944;2023-03-14T03:40:34;1;1;1
55549;PMS7003;41397;49.972;18.944;2023-03-14T03:43:36;2;2;2
55549;PMS7003;41397;49.972;18.944;2023-03-14T03:46:37;5;5;4
55549;PMS7003;41397;49.972;18.944;2023-03-14T03:49:39;5;5;4
55549;PMS7003;41397;49.972;18.944;2023-03-14T03:52:40;3;3;3
55549;PMS7003;41397;49.972;18.944;2023-03-14T03:55:42;3;3;2
55549;PMS7003;41397;49.972;18.944;2023-03-14T03:58:43;6;6;3
55549;PMS7003;41397;49.972;18.944;2023-03-14T04:01:45;3;3;2
55549;PMS7003;41397;49.972;18.944;2023-03-14T04:04:47;3;3;2
55549;PMS7003;41397;49.972;18.944;2023-03-14T04:07:48;2;2;2
55549;PMS7003;41397;49.972;18.944;2023-03-14T04:10:53;2;2;2
55549;PMS7003;41397;49.972;18.944;2023-03-14T04:13:58;4;4;3
55549;PMS7003;41397;49.972;18.944;2023-03-14T04:17:00;4;4;3
55549;PMS7003;41397;49.972;18.944;2023-03-14T04:20:01;5;5;4
55549;PMS7003;41397;49.972;18.944;2023-03-14T04:23:03;3;3;3
55549;PMS7003;41397;49.972;18.944;2023-03-14T04:26:05;6;6;5
55549;PMS7003;41397;49.972;18.944;2023-03-14T04:29:06;5;5;5
55549;PMS7003;41397;49.972;18.944;2023-03-14T04:32:08;4;4;4
55549;PMS7003;41397;49.972;18.944;2023-03-14T04:35:09;2;2;2
55549;PMS7003;41397;49.972;18.944;2023-03-14T04:38:11;5;5;2
55549;PMS7003;41397;49.972;18.944;2023-03-14T04:41:13;1;1;0
55549;PMS7003;41397;49.972;18.944;2023-03-14T04:44:14;6;6;4
55549;PMS7003;41397;49.972;18.944;2023-03-14T04:47:16;5;5;4
55549;PMS7003;41397;49.972;18.944;2023-03-14T04:50:17;5;5;3
55549;PMS7003;41397;49.972;18.944;2023-03-14T04:53:19;7;7;5
55549;PMS7003;41397;49.972;18.944;2023-03-14T04:56:21;8;8;8
55549;PMS7003;41397;49.972;18.944;2023-03-14T04:59:25;10;10;10
55549;PMS7003;41397;49.972;18.944;2023-03-14T05:02:27;6;6;5
55549;PMS7003;41397;49.972;18.944;2023-03-14T05:05:28;8;8;5
55549;PMS7003;41397;49.972;18.944;2023-03-14T05:08:30;10;8;7
55549;PMS7003;41397;49.972;18.944;2023-03-14T05:11:31;10;10;5
55549;PMS7003;41397;49.972;18.944;2023-03-14T05:14:33;3;3;3
55549;PMS7003;41397;49.972;18.944;2023-03-14T05:17:34;6;6;5
55549;PMS7003;41397;49.972;18.944;2023-03-14T05:20:36;9;9;7
55549;PMS7003;41397;49.972;18.944;2023-03-14T05:23:37;8;8;6
55549;PMS7003;41397;49.972;18.944;2023-03-14T05:40:06;4;4;3
55549;PMS7003;41397;49.972;18.944;2023-03-14T05:53:24;5;5;4
55549;PMS7003;41397;49.972;18.944;2023-03-14T05:56:26;7;7;6
55549;PMS7003;41397;49.972;18.944;2023-03-14T05:59:27;8;8;6
55549;PMS7003;41397;49.972;18.944;2023-03-14T06:02:29;5;5;4
55549;PMS7003;41397;49.972;18.944;2023-03-14T06:05:30;7;7;5
55549;PMS7003;41397;49.972;18.944;2023-03-14T06:08:32;6;6;5
55549;PMS7003;41397;49.972;18.944;2023-03-14T06:11:34;3;3;1
55549;PMS7003;41397;49.972;18.944;2023-03-14T06:14:36;13;13;11
55549;PMS7003;41397;49.972;18.944;2023-03-14T06:17:37;9;9;7
55549;PMS7003;41397;49.972;18.944;2023-03-14T06:20:39;4;4;4
55549;PMS7003;41397;49.972;18.944;2023-03-14T06:23:41;5;5;4
55549;PMS7003;41397;49.972;18.944;2023-03-14T06:26:42;7;7;6
55549;PMS7003;41397;49.972;18.944;2023-03-14T06:29:44;5;5;3
55549;PMS7003;41397;49.972;18.944;2023-03-14T06:32:45;9;9;8
55549;PMS7003;41397;49.972;18.944;2023-03-14T06:35:47;6;6;6
55549;PMS7003;41397;49.972;18.944;2023-03-14T06:38:48;4;4;2
55549;PMS7003;41397;49.972;18.944;2023-03-14T06:41:50;3;3;3
55549;PMS7003;41397;49.972;18.944;2023-03-14T06:44:51;2;2;2
55549;PMS7003;41397;49.972;18.944;2023-03-14T06:47:55;5;5;3
55549;PMS7003;41397;49.972;18.944;2023-03-14T06:50:56;5;5;3
55549;PMS7003;41397;49.972;18.944;2023-03-14T06:53:57;5;5;4
55549;PMS7003;41397;49.972;18.944;2023-03-14T06:56:59;6;6;5
55549;PMS7003;41397;49.972;18.944;2023-03-14T07:00:03;4;4;4
55549;PMS7003;41397;49.972;18.944;2023-03-14T07:03:06;4;4;4
55549;PMS7003;41397;49.972;18.944;2023-03-14T07:06:07;6;6;5
55549;PMS7003;41397;49.972;18.944;2023-03-14T07:09:09;3;3;3
55549;PMS7003;41397;49.972;18.944;2023-03-14T07:12:18;5;5;4
55549;PMS7003;41397;49.972;18.944;2023-03-14T07:15:48;5;5;5
55549;PMS7003;41397;49.972;18.944;2023-03-14T07:18:50;2;2;2
55549;PMS7003;41397;49.972;18.944;2023-03-14T07:21:52;5;5;2
55549;PMS7003;41397;49.972;18.944;2023-03-14T07:24:54;6;6;5
55549;PMS7003;41397;49.972;18.944;2023-03-14T07:27:56;2;2;1
55549;PMS7003;41397;49.972;18.944;2023-03-14T07:30:57;6;6;4
55549;PMS7003;41397;49.972;18.944;2023-03-14T07:33:59;6;6;5
55549;PMS7003;41397;49.972;18.944;2023-03-14T07:37:01;2;2;2
55549;PMS7003;41397;49.972;18.944;2023-03-14T07:40:02;4;4;4
55549;PMS7003;41397;49.972;18.944;2023-03-14T07:43:07;7;7;7
55549;PMS7003;41397;49.972;18.944;2023-03-14T07:46:09;3;3;2
55549;PMS7003;41397;49.972;18.944;2023-03-14T07:49:11;3;3;3
55549;PMS7003;41397;49.972;18.944;2023-03-14T07:52:12;7;7;6
55549;PMS7003;41397;49.972;18.944;2023-03-14T07:55:14;2;2;2
55549;PMS7003;41397;49.972;18.944;2023-03-14T07:58:15;2;2;2
55549;PMS7003;41397;49.972;18.944;2023-03-14T08:01:17;5;5;4
55549;PMS7003;41397;49.972;18.944;2023-03-14T08:04:18;3;3;2
55549;PMS7003;41397;49.972;18.944;2023-03-14T08:07:20;2;2;2
55549;PMS7003;41397;49.972;18.944;2023-03-14T08:10:21;5;5;4
55549;PMS7003;41397;49.972;18.944;2023-03-14T08:13:23;2;2;2
55549;PMS7003;41397;49.972;18.944;2023-03-14T08:16:26;5;5;5
55549;PMS7003;41397;49.972;18.944;2023-03-14T08:19:27;5;5;3
55549;PMS7003;41397;49.972;18.944;2023-03-14T08:22:29;5;5;4
55549;PMS7003;41397;49.972;18.944;2023-03-14T08:25:30;5;5;3
55549;PMS7003;41397;49.972;18.944;2023-03-14T08:28:32;6;6;5
55549;PMS7003;41397;49.972;18.944;2023-03-14T08:31:35;6;6;5
55549;PMS7003;41397;49.972;18.944;2023-03-14T08:34:36;4;4;3
55549;PMS7003;41397;49.972;18.944;2023-03-14T08:37:38;4;4;4
55549;PMS7003;41397;49.972;18.944;2023-03-14T08:40:40;5;5;4
55549;PMS7003;41397;49.972;18.944;2023-03-14T08:43:43;6;6;6
55549;PMS7003;41397;49.972;18.944;2023-03-14T08:46:44;3;3;3
55549;PMS7003;41397;49.972;18.944;2023-03-14T08:49:45;4;4;4
55549;PMS7003;41397;49.972;18.944;2023-03-14T08:52:47;5;5;4
55549;PMS7003;41397;49.972;18.944;2023-03-14T08:55:52;1;1;1
55549;PMS7003;41397;49.972;18.944;2023-03-14T09:02:26;6;6;5
55549;PMS7003;41397;49.972;18.944;2023-03-14T09:05:27;5;5;4
55549;PMS7003;41397;49.972;18.944;2023-03-14T09:08:29;2;2;2
55549;PMS7003;41397;49.972;18.944;2023-03-14T09:11:30;6;6;6
55549;PMS7003;41397;49.972;18.944;2023-03-14T09:14:32;5;5;4
55549;PMS7003;41397;49.972;18.944;2023-03-14T09:17:34;3;3;3
55549;PMS7003;41397;49.972;18.944;2023-03-14T09:20:35;9;9;6
55549;PMS7003;41397;49.972;18.944;2023-03-14T09:23:36;4;4;4
55549;PMS7003;41397;49.972;18.944;2023-03-14T09:26:38;8;8;7
55549;PMS7003;41397;49.972;18.944;2023-03-14T09:29:39;5;5;4
55549;PMS7003;41397;49.972;18.944;2023-03-14T09:32:41;6;6;5
55549;PMS7003;41397;49.972;18.944;2023-03-14T09:35:42;6;6;5
55549;PMS7003;41397;49.972;18.944;2023-03-14T09:38:44;3;3;3
55549;PMS7003;41397;49.972;18.944;2023-03-14T09:41:46;4;4;4
55549;PMS7003;41397;49.972;18.944;2023-03-14T10:08:17;9;7;6
55549;PMS7003;41397;49.972;18.944;2023-03-14T10:11:19;7;7;6
55549;PMS7003;41397;49.972;18.944;2023-03-14T10:20:44;5;5;3
55549;PMS7003;41397;49.972;18.944;2023-03-14T10:23:48;4;4;4
55549;PMS7003;41397;49.972;18.944;2023-03-14T10:26:52;6;6;4
55549;PMS7003;41397;49.972;18.944;2023-03-14T10:30:00;7;7;4
55549;PMS7003;41397;49.972;18.944;2023-03-14T10:36:19;4;4;4
55549;PMS7003;41397;49.972;18.944;2023-03-14T10:39:28;8;8;6
55549;PMS7003;41397;49.972;18.944;2023-03-14T10:42:34;11;11;10
55549;PMS7003;41397;49.972;18.944;2023-03-14T10:45:43;13;13;10
55549;PMS7003;41397;49.972;18.944;2023-03-14T10:48:54;7;7;5
55549;PMS7003;41397;49.972;18.944;2023-03-14T10:51:58;9;9;7
55549;PMS7003;41397;49.972;18.944;2023-03-14T10:55:22;10;10;7
55549;PMS7003;41397;49.972;18.944;2023-03-14T10:58:38;7;7;6
55549;PMS7003;41397;49.972;18.944;2023-03-14T11:01:44;8;8;6
55549;PMS7003;41397;49.972;18.944;2023-03-14T11:11:24;5;5;5
55549;PMS7003;41397;49.972;18.944;2023-03-14T11:17:56;8;8;6
55549;PMS7003;41397;49.972;18.944;2023-03-14T11:21:11;5;5;4
55549;PMS7003;41397;49.972;18.944;2023-03-14T11:27:45;10;10;8
55549;PMS7003;41397;49.972;18.944;2023-03-14T11:31:46;9;8;6
55549;PMS7003;41397;49.972;18.944;2023-03-14T11:40:43;10;10;8
55549;PMS7003;41397;49.972;18.944;2023-03-14T11:43:48;11;11;8
55549;PMS7003;41397;49.972;18.944;2023-03-14T11:47:13;22;19;12
55549;PMS7003;41397;49.972;18.944;2023-03-14T11:53:22;11;11;8
55549;PMS7003;41397;49.972;18.944;2023-03-14T11:56:36;8;8;8
55549;PMS7003;41397;49.972;18.944;2023-03-14T12:09:24;10;10;7
55549;PMS7003;41397;49.972;18.944;2023-03-14T12:12:26;8;8;6
55549;PMS7003;41397;49.972;18.944;2023-03-14T12:15:30;9;9;5
55549;PMS7003;41397;49.972;18.944;2023-03-14T12:18:35;12;12;7
55549;PMS7003;41397;49.972;18.944;2023-03-14T12:24:53;11;11;10
55549;PMS7003;41397;49.972;18.944;2023-03-14T12:37:37;8;8;6
55549;PMS7003;41397;49.972;18.944;2023-03-14T12:50:53;5;5;5
55549;PMS7003;41397;49.972;18.944;2023-03-14T13:03:21;5;5;5
55549;PMS7003;41397;49.972;18.944;2023-03-14T13:16:04;6;6;5
55549;PMS7003;41397;49.972;18.944;2023-03-14T13:22:22;6;6;6
55549;PMS7003;41397;49.972;18.944;2023-03-14T13:25:34;8;8;7
55549;PMS7003;41397;49.972;18.944;2023-03-14T13:28:37;8;8;7
55549;PMS7003;41397;49.972;18.944;2023-03-14T14:25:41;2;2;1
55549;PMS7003;41397;49.972;18.944;2023-03-14T14:32:46;6;6;4
55549;PMS7003;41397;49.972;18.944;2023-03-14T14:56:45;7;7;6
55549;PMS7003;41397;49.972;18.944;2023-03-14T15:06:54;12;12;8
55549;PMS7003;41397;49.972;18.944;2023-03-14T15:23:33;8;8;8
55549;PMS7003;41397;49.972;18.944;2023-03-14T15:30:22;11;11;10
55549;PMS7003;41397;49.972;18.944;2023-03-14T15:37:02;16;16;10
55549;PMS7003;41397;49.972;18.944;2023-03-14T15:40:09;12;9;8
55549;PMS7003;41397;49.972;18.944;2023-03-14T15:43:14;11;11;8
55549;PMS7003;41397;49.972;18.944;2023-03-14T15:46:17;7;7;6
55549;PMS7003;41397;49.972;18.944;2023-03-14T15:49:23;9;8;6
55549;PMS7003;41397;49.972;18.944;2023-03-14T15:52:24;10;10;8
55549;PMS7003;41397;49.972;18.944;2023-03-14T15:58:55;4;4;3
55549;PMS7003;41397;49.972;18.944;2023-03-14T16:01:57;14;14;10
55549;PMS7003;41397;49.972;18.944;2023-03-14T16:08:21;0;0;0
55549;PMS7003;41397;49.972;18.944;2023-03-14T16:11:28;1;1;0
55549;PMS7003;41397;49.972;18.944;2023-03-14T16:14:30;4;4;3
55549;PMS7003;41397;49.972;18.944;2023-03-14T16:17:32;6;6;6
55549;PMS7003;41397;49.972;18.944;2023-03-14T16:20:41;6;6;5
55549;PMS7003;41397;49.972;18.944;2023-03-14T16:23:54;7;7;5
55549;PMS7003;41397;49.972;18.944;2023-03-14T16:26:55;6;6;5
55549;PMS7003;41397;49.972;18.944;2023-03-14T16:30:29;10;10;7
55549;PMS7003;41397;49.972;18.944;2023-03-14T16:33:32;13;13;8
55549;PMS7003;41397;49.972;18.944;2023-03-14T16:36:34;13;13;9
55549;PMS7003;41397;49.972;18.944;2023-03-14T16:42:18;14;14;9
55549;PMS7003;41397;49.972;18.944;2023-03-14T16:52:29;21;21;14
55549;PMS7003;41397;49.972;18.944;2023-03-14T16:55:30;20;20;14
55549;PMS7003;41397;49.972;18.944;2023-03-14T17:01:51;40;34;23
55549;PMS7003;41397;49.972;18.944;2023-03-14T17:04:53;26;25;17
55549;PMS7003;41397;49.972;18.944;2023-03-14T17:07:54;21;21;13
55549;PMS7003;41397;49.972;18.944;2023-03-14T17:10:56;16;16;12
55549;PMS7003;41397;49.972;18.944;2023-03-14T17:14:00;19;19;12
55549;PMS7003;41397;49.972;18.944;2023-03-14T17:17:03;10;10;6
55549;PMS7003;41397;49.972;18.944;2023-03-14T17:20:05;22;22;15
55549;PMS7003;41397;49.972;18.944;2023-03-14T17:23:08;22;22;14
55549;PMS7003;41397;49.972;18.944;2023-03-14T17:26:15;24;24;16
55549;PMS7003;41397;49.972;18.944;2023-03-14T17:29:22;15;15;12
55549;PMS7003;41397;49.972;18.944;2023-03-14T17:32:29;18;18;14
55549;PMS7003;41397;49.972;18.944;2023-03-14T17:35:33;16;16;14
55549;PMS7003;41397;49.972;18.944;2023-03-14T18:16:42;36;32;23
55549;PMS7003;41397;49.972;18.944;2023-03-14T18:40:12;30;28;17
55549;PMS7003;41397;49.972;18.944;2023-03-14T18:54:01;22;22;13
55549;PMS7003;41397;49.972;18.944;2023-03-14T18:57:03;19;19;12
55549;PMS7003;41397;49.972;18.944;2023-03-14T19:00:04;19;18;11
55549;PMS7003;41397;49.972;18.944;2023-03-14T19:03:15;21;21;16
55549;PMS7003;41397;49.972;18.944;2023-03-14T19:06:16;23;23;11
55549;PMS7003;41397;49.972;18.944;2023-03-14T19:09:26;17;17;12
55549;PMS7003;41397;49.972;18.944;2023-03-14T19:12:37;19;19;12
55549;PMS7003;41397;49.972;18.944;2023-03-14T19:15:39;21;20;14
55549;PMS7003;41397;49.972;18.944;2023-03-14T19:18:42;22;21;14
55549;PMS7003;41397;49.972;18.944;2023-03-14T19:21:44;24;23;14
55549;PMS7003;41397;49.972;18.944;2023-03-14T19:24:46;19;19;15
55549;PMS7003;41397;49.972;18.944;2023-03-14T19:27:47;20;20;13
55549;PMS7003;41397;49.972;18.944;2023-03-14T19:30:54;19;19;13
55549;PMS7003;41397;49.972;18.944;2023-03-14T19:34:01;21;21;15
55549;PMS7003;41397;49.972;18.944;2023-03-14T19:37:03;17;17;12
55549;PMS7003;41397;49.972;18.944;2023-03-14T19:43:36;12;12;10
55549;PMS7003;41397;49.972;18.944;2023-03-14T19:46:38;14;14;12
55549;PMS7003;41397;49.972;18.944;2023-03-14T19:49:42;19;19;14
55549;PMS7003;41397;49.972;18.944;2023-03-14T19:53:05;1;1;0
55549;PMS7003;41397;49.972;18.944;2023-03-14T19:56:14;21;16;11
55549;PMS7003;41397;49.972;18.944;2023-03-14T20:06:45;22;22;17
55549;PMS7003;41397;49.972;18.944;2023-03-14T20:10:07;29;26;16
55549;PMS7003;41397;49.972;18.944;2023-03-14T20:16:52;17;16;11
55549;PMS7003;41397;49.972;18.944;2023-03-14T20:19:59;11;11;8
55549;PMS7003;41397;49.972;18.944;2023-03-14T20:26:41;11;11;8
55549;PMS7003;41397;49.972;18.944;2023-03-14T20:30:14;13;13;9
55549;PMS7003;41397;49.972;18.944;2023-03-14T20:33:49;8;8;7
55549;PMS7003;41397;49.972;18.944;2023-03-14T20:37:01;9;9;8
55549;PMS7003;41397;49.972;18.944;2023-03-14T20:40:06;7;7;5
55549;PMS7003;41397;49.972;18.944;2023-03-14T20:43:33;8;8;8
55549;PMS7003;41397;49.972;18.944;2023-03-14T20:53:40;9;9;8
55549;PMS7003;41397;49.972;18.944;2023-03-14T21:00:18;12;12;9
55549;PMS7003;41397;49.972;18.944;2023-03-14T21:03:23;6;6;5
55549;PMS7003;41397;49.972;18.944;2023-03-14T21:06:26;15;15;7
55549;PMS7003;41397;49.972;18.944;2023-03-14T21:09:44;11;11;8
55549;PMS7003;41397;49.972;18.944;2023-03-14T21:12:50;14;14;9
55549;PMS7003;41397;49.972;18.944;2023-03-14T21:16:01;18;17;12
55549;PMS7003;41397;49.972;18.944;2023-03-14T21:19:06;19;19;12
55549;PMS7003;41397;49.972;18.944;2023-03-14T21:22:08;14;14;12
55549;PMS7003;41397;49.972;18.944;2023-03-14T21:25:23;16;16;13
55549;PMS7003;41397;49.972;18.944;2023-03-14T21:28:34;18;18;11
55549;PMS7003;41397;49.972;18.944;2023-03-14T21:31:53;17;17;9
55549;PMS7003;41397;49.972;18.944;2023-03-14T21:35:21;14;14;9
55549;PMS7003;41397;49.972;18.944;2023-03-14T21:41:56;31;23;16
55549;PMS7003;41397;49.972;18.944;2023-03-14T21:44:57;20;18;10
55549;PMS7003;41397;49.972;18.944;2023-03-14T21:48:03;13;13;8
55549;PMS7003;41397;49.972;18.944;2023-03-14T21:51:05;7;7;6
55549;PMS7003;41397;49.972;18.944;2023-03-14T21:54:07;7;7;4
55549;PMS7003;41397;49.972;18.944;2023-03-14T21:57:11;6;6;4
55549;PMS7003;41397;49.972;18.944;2023-03-14T22:00:20;3;3;3
55549;PMS7003;41397;49.972;18.944;2023-03-14T22:03:22;2;2;1
55549;PMS7003;41397;49.972;18.944;2023-03-14T22:06:25;3;3;2
55549;PMS7003;41397;49.972;18.944;2023-03-14T22:09:28;1;1;0
55549;PMS7003;41397;49.972;18.944;2023-03-14T22:12:29;5;5;4
55549;PMS7003;41397;49.972;18.944;2023-03-14T22:15:31;3;3;1
55549;PMS7003;41397;49.972;18.944;2023-03-14T22:18:32;4;4;4
55549;PMS7003;41397;49.972;18.944;2023-03-14T22:21:34;4;4;4
55549;PMS7003;41397;49.972;18.944;2023-03-14T22:24:36;1;1;0
55549;PMS7003;41397;49.972;18.944;2023-03-14T22:27:37;2;2;2
55549;PMS7003;41397;49.972;18.944;2023-03-14T22:30:38;3;3;3
55549;PMS7003;41397;49.972;18.944;2023-03-14T22:33:42;2;2;1
55549;PMS7003;41397;49.972;18.944;2023-03-14T22:36:43;2;2;1
55549;PMS7003;41397;49.972;18.944;2023-03-14T22:39:45;1;1;1
55549;PMS7003;41397;49.972;18.944;2023-03-14T22:42:46;3;3;2
55549;PMS7003;41397;49.972;18.944;2023-03-14T22:45:56;5;5;3
55549;PMS7003;41397;49.972;18.944;2023-03-14T22:49:03;3;3;3
55549;PMS7003;41397;49.972;18.944;2023-03-14T22:52:10;2;2;2
55549;PMS7003;41397;49.972;18.944;2023-03-14T22:55:12;2;2;2
55549;PMS7003;41397;49.972;18.944;2023-03-14T22:58:13;0;0;0
55549;PMS7003;41397;49.972;18.944;2023-03-14T23:01:15;0;0;0
55549;PMS7003;41397;49.972;18.944;2023-03-14T23:04:18;1;1;1
55549;PMS7003;41397;49.972;18.944;2023-03-14T23:07:20;1;1;1
55549;PMS7003;41397;49.972;18.944;2023-03-14T23:10:22;0;0;0
55549;PMS7003;41397;49.972;18.944;2023-03-14T23:13:23;1;1;1
55549;PMS7003;41397;49.972;18.944;2023-03-14T23:16:26;0;0;0
55549;PMS7003;41397;49.972;18.944;2023-03-14T23:19:27;1;1;1
55549;PMS7003;41397;49.972;18.944;2023-03-14T23:22:28;3;3;2
55549;PMS7003;41397;49.972;18.944;2023-03-14T23:25:33;1;1;1
55549;PMS7003;41397;49.972;18.944;2023-03-14T23:28:36;6;6;4
55549;PMS7003;41397;49.972;18.944;2023-03-14T23:31:37;2;2;1
55549;PMS7003;41397;49.972;18.944;2023-03-14T23:34:40;7;7;6
55549;PMS7003;41397;49.972;18.944;2023-03-14T23:37:42;8;5;3
55549;PMS7003;41397;49.972;18.944;2023-03-14T23:40:44;3;3;3
55549;PMS7003;41397;49.972;18.944;2023-03-14T23:43:46;2;2;1
55549;PMS7003;41397;49.972;18.944;2023-03-14T23:46:48;1;1;1
55549;PMS7003;41397;49.972;18.944;2023-03-14T23:49:49;0;0;0
55549;PMS7003;41397;49.972;18.944;2023-03-14T23:52:52;0;0;0
55549;PMS7003;41397;49.972;18.944;2023-03-14T23:55:53;0;0;0
55549;PMS7003;41397;49.972;18.944;2023-03-14T23:58:55;2;2;1
